sensor_id;sensor_type;location;lat;lon;timestamp;pressure;altitude;pressure_sealevel;temperature;humidity
49915;BME280;35806;47.958;13.158;2023-03-03T00:01:29;94670.98;;;-2.59;72.32
49915;BME280;35806;47.958;13.158;2023-03-03T00:03:57;94665.11;;;-1.68;69.09
49915;BME280;35806;47.958;13.158;2023-03-03T00:06:24;94665.66;;;-2.27;69.13
49915;BME280;35806;47.958;13.158;2023-03-03T00:08:52;94663.21;;;-0.78;65.90
49915;BME280;35806;47.958;13.158;2023-03-03T00:11:19;94664.65;;;0.26;62.86
49915;BME280;35806;47.958;13.158;2023-03-03T00:13:49;94667.74;;;0.10;62.43
49915;BME280;35806;47.958;13.158;2023-03-03T00:16:22;94675.15;;;-2.06;68.02
49915;BME280;35806;47.958;13.158;2023-03-03T00:18:50;94677.69;;;-2.04;69.41
49915;BME280;35806;47.958;13.158;2023-03-03T00:21:25;94675.91;;;-1.70;69.36
49915;BME280;35806;47.958;13.158;2023-03-03T00:23:53;94671.76;;;-1.52;68.49
49915;BME280;35806;47.958;13.158;2023-03-03T00:26:23;94676.15;;;-0.94;67.00
49915;BME280;35806;47.958;13.158;2023-03-03T00:28:53;94676.88;;;-0.22;63.56
49915;BME280;35806;47.958;13.158;2023-03-03T00:31:28;94678.65;;;0.28;62.68
49915;BME280;35806;47.958;13.158;2023-03-03T00:34:03;94677.99;;;-0.19;62.31
49915;BME280;35806;47.958;13.158;2023-03-03T00:36:48;94678.46;;;0.32;60.62
49915;BME280;35806;47.958;13.158;2023-03-03T00:39:28;94680.74;;;0.61;59.75
49915;BME280;35806;47.958;13.158;2023-03-03T00:41:57;94685.39;;;0.11;59.07
49915;BME280;35806;47.958;13.158;2023-03-03T00:44:42;94686.43;;;0.22;58.44
49915;BME280;35806;47.958;13.158;2023-03-03T00:47:25;94690.65;;;0.42;57.89
49915;BME280;35806;47.958;13.158;2023-03-03T00:49:53;94692.69;;;0.57;57.53
49915;BME280;35806;47.958;13.158;2023-03-03T00:52:21;94689.73;;;0.18;58.34
49915;BME280;35806;47.958;13.158;2023-03-03T00:54:50;94689.22;;;0.09;58.15
49915;BME280;35806;47.958;13.158;2023-03-03T00:57:17;94691.65;;;0.37;57.72
49915;BME280;35806;47.958;13.158;2023-03-03T00:59:45;94692.83;;;0.42;57.66
49915;BME280;35806;47.958;13.158;2023-03-03T01:02:12;94688.40;;;0.70;56.23
49915;BME280;35806;47.958;13.158;2023-03-03T01:04:40;94688.54;;;1.12;55.17
49915;BME280;35806;47.958;13.158;2023-03-03T01:07:09;94690.96;;;0.57;57.00
49915;BME280;35806;47.958;13.158;2023-03-03T01:09:36;94694.61;;;0.95;55.58
49915;BME280;35806;47.958;13.158;2023-03-03T01:12:04;94699.15;;;0.77;55.46
49915;BME280;35806;47.958;13.158;2023-03-03T01:14:32;94697.29;;;0.46;56.74
49915;BME280;35806;47.958;13.158;2023-03-03T01:17:00;94694.12;;;0.28;57.49
49915;BME280;35806;47.958;13.158;2023-03-03T01:19:26;94694.32;;;-0.13;57.24
49915;BME280;35806;47.958;13.158;2023-03-03T01:21:54;94690.86;;;0.09;57.43
49915;BME280;35806;47.958;13.158;2023-03-03T01:24:21;94689.11;;;-0.38;57.41
49915;BME280;35806;47.958;13.158;2023-03-03T01:26:49;94686.70;;;-0.25;57.75
49915;BME280;35806;47.958;13.158;2023-03-03T01:29:16;94685.82;;;-0.33;58.16
49915;BME280;35806;47.958;13.158;2023-03-03T01:31:44;94686.92;;;0.65;56.72
49915;BME280;35806;47.958;13.158;2023-03-03T01:34:11;94684.28;;;0.35;57.07
49915;BME280;35806;47.958;13.158;2023-03-03T01:36:38;94683.48;;;0.89;55.82
49915;BME280;35806;47.958;13.158;2023-03-03T01:39:06;94681.35;;;1.19;56.34
49915;BME280;35806;47.958;13.158;2023-03-03T01:41:33;94684.12;;;0.84;56.34
49915;BME280;35806;47.958;13.158;2023-03-03T01:44:00;94687.85;;;0.55;58.20
49915;BME280;35806;47.958;13.158;2023-03-03T01:46:34;94690.62;;;0.59;58.64
49915;BME280;35806;47.958;13.158;2023-03-03T01:49:11;94688.71;;;-0.02;59.26
49915;BME280;35806;47.958;13.158;2023-03-03T01:51:46;94684.36;;;0.62;57.98
49915;BME280;35806;47.958;13.158;2023-03-03T01:54:19;94686.47;;;1.57;55.68
49915;BME280;35806;47.958;13.158;2023-03-03T01:56:49;94688.84;;;0.94;57.29
49915;BME280;35806;47.958;13.158;2023-03-03T01:59:20;94687.86;;;1.16;57.26
49915;BME280;35806;47.958;13.158;2023-03-03T02:15:29;94684.40;;;1.83;54.93
49915;BME280;35806;47.958;13.158;2023-03-03T02:17:58;94685.99;;;2.70;54.51
49915;BME280;35806;47.958;13.158;2023-03-03T02:20:36;94686.21;;;2.85;53.90
49915;BME280;35806;47.958;13.158;2023-03-03T02:23:09;94686.66;;;2.73;54.60
49915;BME280;35806;47.958;13.158;2023-03-03T02:25:45;94688.18;;;2.36;54.18
49915;BME280;35806;47.958;13.158;2023-03-03T02:28:15;94685.70;;;3.18;53.04
49915;BME280;35806;47.958;13.158;2023-03-03T02:30:43;94687.56;;;2.30;54.72
49915;BME280;35806;47.958;13.158;2023-03-03T02:33:10;94683.89;;;2.73;54.45
49915;BME280;35806;47.958;13.158;2023-03-03T02:35:39;94684.26;;;2.23;54.94
49915;BME280;35806;47.958;13.158;2023-03-03T02:38:14;94681.41;;;2.13;55.38
49915;BME280;35806;47.958;13.158;2023-03-03T02:40:53;94679.81;;;1.96;55.44
49915;BME280;35806;47.958;13.158;2023-03-03T02:43:24;94676.56;;;2.10;55.43
49915;BME280;35806;47.958;13.158;2023-03-03T02:45:54;94674.88;;;2.85;54.52
49915;BME280;35806;47.958;13.158;2023-03-03T02:48:21;94673.87;;;2.46;54.82
49915;BME280;35806;47.958;13.158;2023-03-03T02:50:48;94673.27;;;2.62;54.54
49915;BME280;35806;47.958;13.158;2023-03-03T02:53:15;94670.18;;;2.66;54.93
49915;BME280;35806;47.958;13.158;2023-03-03T02:55:42;94668.04;;;2.73;54.46
49915;BME280;35806;47.958;13.158;2023-03-03T02:58:09;94667.26;;;2.64;54.49
49915;BME280;35806;47.958;13.158;2023-03-03T03:00:36;94666.43;;;2.59;54.67
49915;BME280;35806;47.958;13.158;2023-03-03T03:03:03;94668.10;;;2.83;54.58
49915;BME280;35806;47.958;13.158;2023-03-03T03:05:35;94672.02;;;2.70;54.40
49915;BME280;35806;47.958;13.158;2023-03-03T03:08:02;94668.38;;;2.63;54.48
49915;BME280;35806;47.958;13.158;2023-03-03T03:10:30;94665.93;;;2.57;54.62
49915;BME280;35806;47.958;13.158;2023-03-03T03:12:57;94666.67;;;2.98;53.85
49915;BME280;35806;47.958;13.158;2023-03-03T03:15:24;94663.58;;;2.34;55.21
49915;BME280;35806;47.958;13.158;2023-03-03T03:17:51;94666.24;;;2.80;54.40
49915;BME280;35806;47.958;13.158;2023-03-03T03:20:19;94664.02;;;3.06;53.87
49915;BME280;35806;47.958;13.158;2023-03-03T03:22:46;94665.69;;;2.72;54.57
49915;BME280;35806;47.958;13.158;2023-03-03T03:25:13;94667.14;;;2.95;54.16
49915;BME280;35806;47.958;13.158;2023-03-03T03:27:40;94667.54;;;2.93;54.32
49915;BME280;35806;47.958;13.158;2023-03-03T03:30:08;94667.84;;;2.84;54.67
49915;BME280;35806;47.958;13.158;2023-03-03T03:32:36;94667.02;;;2.74;54.48
49915;BME280;35806;47.958;13.158;2023-03-03T03:35:04;94662.83;;;2.65;54.91
49915;BME280;35806;47.958;13.158;2023-03-03T03:37:31;94661.92;;;2.70;54.96
49915;BME280;35806;47.958;13.158;2023-03-03T03:39:59;94664.41;;;2.69;55.01
49915;BME280;35806;47.958;13.158;2023-03-03T03:42:27;94664.96;;;3.42;53.34
49915;BME280;35806;47.958;13.158;2023-03-03T03:44:54;94666.89;;;3.07;54.13
49915;BME280;35806;47.958;13.158;2023-03-03T03:47:21;94670.11;;;2.06;55.60
49915;BME280;35806;47.958;13.158;2023-03-03T03:49:48;94671.44;;;3.02;54.28
49915;BME280;35806;47.958;13.158;2023-03-03T03:52:25;94669.34;;;3.48;54.23
49915;BME280;35806;47.958;13.158;2023-03-03T03:54:53;94670.77;;;3.05;54.28
49915;BME280;35806;47.958;13.158;2023-03-03T03:57:20;94671.09;;;2.68;54.96
49915;BME280;35806;47.958;13.158;2023-03-03T03:59:48;94675.78;;;2.98;54.51
49915;BME280;35806;47.958;13.158;2023-03-03T04:02:20;94676.96;;;2.73;54.72
49915;BME280;35806;47.958;13.158;2023-03-03T04:04:56;94676.32;;;2.48;54.45
49915;BME280;35806;47.958;13.158;2023-03-03T04:07:24;94672.96;;;2.94;54.50
49915;BME280;35806;47.958;13.158;2023-03-03T04:09:52;94672.54;;;2.93;54.16
49915;BME280;35806;47.958;13.158;2023-03-03T04:12:19;94671.92;;;2.94;54.30
49915;BME280;35806;47.958;13.158;2023-03-03T04:14:46;94675.14;;;3.38;53.55
49915;BME280;35806;47.958;13.158;2023-03-03T04:17:16;94674.12;;;3.13;54.25
49915;BME280;35806;47.958;13.158;2023-03-03T04:19:43;94677.50;;;3.03;54.33
49915;BME280;35806;47.958;13.158;2023-03-03T04:22:11;94677.45;;;3.33;53.93
49915;BME280;35806;47.958;13.158;2023-03-03T04:24:39;94678.37;;;3.02;54.32
49915;BME280;35806;47.958;13.158;2023-03-03T04:27:07;94682.65;;;3.28;53.75
49915;BME280;35806;47.958;13.158;2023-03-03T04:29:35;94679.40;;;2.87;54.15
49915;BME280;35806;47.958;13.158;2023-03-03T04:32:03;94678.75;;;2.98;54.31
49915;BME280;35806;47.958;13.158;2023-03-03T04:34:30;94679.54;;;3.06;53.96
49915;BME280;35806;47.958;13.158;2023-03-03T04:36:58;94685.94;;;2.50;54.88
49915;BME280;35806;47.958;13.158;2023-03-03T04:39:26;94685.69;;;3.27;53.97
49915;BME280;35806;47.958;13.158;2023-03-03T04:41:53;94688.09;;;2.75;54.62
49915;BME280;35806;47.958;13.158;2023-03-03T04:44:20;94685.38;;;2.87;54.05
49915;BME280;35806;47.958;13.158;2023-03-03T04:46:47;94687.01;;;3.26;53.81
49915;BME280;35806;47.958;13.158;2023-03-03T04:49:14;94682.86;;;3.31;53.90
49915;BME280;35806;47.958;13.158;2023-03-03T04:51:42;94682.34;;;2.98;54.91
49915;BME280;35806;47.958;13.158;2023-03-03T04:54:09;94686.05;;;3.37;54.07
49915;BME280;35806;47.958;13.158;2023-03-03T04:56:36;94685.05;;;2.90;54.39
49915;BME280;35806;47.958;13.158;2023-03-03T04:59:05;94687.34;;;3.26;54.29
49915;BME280;35806;47.958;13.158;2023-03-03T05:01:33;94689.64;;;3.17;54.63
49915;BME280;35806;47.958;13.158;2023-03-03T05:04:05;94690.34;;;3.33;54.34
49915;BME280;35806;47.958;13.158;2023-03-03T05:06:33;94692.93;;;3.32;54.17
49915;BME280;35806;47.958;13.158;2023-03-03T05:09:00;94688.59;;;3.06;54.25
49915;BME280;35806;47.958;13.158;2023-03-03T05:11:27;94688.10;;;2.99;54.60
49915;BME280;35806;47.958;13.158;2023-03-03T05:13:55;94687.86;;;3.41;54.04
49915;BME280;35806;47.958;13.158;2023-03-03T05:16:22;94692.32;;;3.47;53.91
49915;BME280;35806;47.958;13.158;2023-03-03T05:18:49;94693.00;;;3.09;54.67
49915;BME280;35806;47.958;13.158;2023-03-03T05:21:16;94692.15;;;3.05;54.97
49915;BME280;35806;47.958;13.158;2023-03-03T05:23:43;94691.09;;;3.40;54.01
49915;BME280;35806;47.958;13.158;2023-03-03T05:26:21;94692.04;;;3.49;53.98
49915;BME280;35806;47.958;13.158;2023-03-03T05:29:15;94693.44;;;2.14;55.45
49915;BME280;35806;47.958;13.158;2023-03-03T05:31:42;94696.48;;;3.10;54.91
49915;BME280;35806;47.958;13.158;2023-03-03T05:34:10;94700.96;;;2.61;54.82
49915;BME280;35806;47.958;13.158;2023-03-03T05:36:36;94697.89;;;2.86;54.89
49915;BME280;35806;47.958;13.158;2023-03-03T05:39:03;94700.66;;;2.82;54.73
49915;BME280;35806;47.958;13.158;2023-03-03T05:41:31;94698.70;;;3.08;54.29
49915;BME280;35806;47.958;13.158;2023-03-03T05:43:57;94699.78;;;2.47;55.67
49915;BME280;35806;47.958;13.158;2023-03-03T05:46:42;94701.10;;;3.09;54.68
49915;BME280;35806;47.958;13.158;2023-03-03T05:49:09;94700.62;;;2.73;55.13
49915;BME280;35806;47.958;13.158;2023-03-03T05:51:36;94698.98;;;3.78;53.24
49915;BME280;35806;47.958;13.158;2023-03-03T05:54:03;94705.11;;;3.19;54.49
49915;BME280;35806;47.958;13.158;2023-03-03T05:56:30;94709.09;;;2.93;54.46
49915;BME280;35806;47.958;13.158;2023-03-03T05:58:58;94714.02;;;3.18;54.12
49915;BME280;35806;47.958;13.158;2023-03-03T06:01:25;94717.33;;;2.65;55.67
49915;BME280;35806;47.958;13.158;2023-03-03T06:03:52;94718.06;;;3.14;55.00
49915;BME280;35806;47.958;13.158;2023-03-03T06:06:19;94720.83;;;3.08;54.56
49915;BME280;35806;47.958;13.158;2023-03-03T06:08:56;94720.45;;;3.13;54.90
49915;BME280;35806;47.958;13.158;2023-03-03T06:11:24;94722.97;;;3.50;53.93
49915;BME280;35806;47.958;13.158;2023-03-03T06:13:51;94722.82;;;3.42;54.53
49915;BME280;35806;47.958;13.158;2023-03-03T06:16:19;94724.57;;;4.16;53.02
49915;BME280;35806;47.958;13.158;2023-03-03T06:18:46;94726.17;;;3.40;54.41
49915;BME280;35806;47.958;13.158;2023-03-03T06:21:13;94729.59;;;3.58;54.25
49915;BME280;35806;47.958;13.158;2023-03-03T06:23:40;94732.86;;;3.15;54.63
49915;BME280;35806;47.958;13.158;2023-03-03T06:26:08;94733.42;;;3.41;54.09
49915;BME280;35806;47.958;13.158;2023-03-03T06:28:36;94733.29;;;3.62;53.46
49915;BME280;35806;47.958;13.158;2023-03-03T06:31:03;94737.45;;;3.48;54.17
49915;BME280;35806;47.958;13.158;2023-03-03T06:33:30;94737.60;;;3.94;53.91
49915;BME280;35806;47.958;13.158;2023-03-03T06:35:57;94736.75;;;3.60;53.72
49915;BME280;35806;47.958;13.158;2023-03-03T06:38:25;94738.18;;;3.92;53.40
49915;BME280;35806;47.958;13.158;2023-03-03T06:41:01;94737.48;;;4.34;52.26
49915;BME280;35806;47.958;13.158;2023-03-03T06:43:29;94745.54;;;3.38;53.93
49915;BME280;35806;47.958;13.158;2023-03-03T06:45:57;94748.41;;;3.67;53.44
49915;BME280;35806;47.958;13.158;2023-03-03T06:48:24;94752.72;;;3.59;54.07
49915;BME280;35806;47.958;13.158;2023-03-03T06:50:51;94753.95;;;3.70;53.93
49915;BME280;35806;47.958;13.158;2023-03-03T06:53:20;94752.56;;;3.75;53.76
49915;BME280;35806;47.958;13.158;2023-03-03T06:55:47;94755.06;;;4.08;53.11
49915;BME280;35806;47.958;13.158;2023-03-03T06:58:16;94754.59;;;3.83;53.36
49915;BME280;35806;47.958;13.158;2023-03-03T07:00:46;94757.12;;;3.61;53.48
49915;BME280;35806;47.958;13.158;2023-03-03T07:03:18;94755.85;;;3.68;53.54
49915;BME280;35806;47.958;13.158;2023-03-03T07:05:48;94754.67;;;3.93;53.24
49915;BME280;35806;47.958;13.158;2023-03-03T07:08:18;94760.64;;;4.07;53.56
49915;BME280;35806;47.958;13.158;2023-03-03T07:10:47;94763.12;;;3.38;54.69
49915;BME280;35806;47.958;13.158;2023-03-03T07:13:18;94766.04;;;3.11;54.89
49915;BME280;35806;47.958;13.158;2023-03-03T07:15:46;94767.63;;;3.88;53.86
49915;BME280;35806;47.958;13.158;2023-03-03T07:18:26;94772.77;;;4.11;54.03
49915;BME280;35806;47.958;13.158;2023-03-03T07:20:56;94776.78;;;4.04;53.50
49915;BME280;35806;47.958;13.158;2023-03-03T07:23:26;94776.33;;;3.41;54.23
49915;BME280;35806;47.958;13.158;2023-03-03T07:25:53;94780.48;;;3.90;53.48
49915;BME280;35806;47.958;13.158;2023-03-03T07:28:23;94781.08;;;4.20;53.28
49915;BME280;35806;47.958;13.158;2023-03-03T07:30:51;94780.58;;;4.19;52.93
49915;BME280;35806;47.958;13.158;2023-03-03T07:33:24;94783.04;;;4.24;53.38
49915;BME280;35806;47.958;13.158;2023-03-03T07:35:54;94782.24;;;4.46;53.13
49915;BME280;35806;47.958;13.158;2023-03-03T07:38:29;94786.44;;;4.82;52.24
49915;BME280;35806;47.958;13.158;2023-03-03T07:40:59;94786.59;;;4.23;52.32
49915;BME280;35806;47.958;13.158;2023-03-03T07:43:37;94791.77;;;4.04;52.99
49915;BME280;35806;47.958;13.158;2023-03-03T07:46:20;94795.42;;;3.90;53.35
49915;BME280;35806;47.958;13.158;2023-03-03T07:48:50;94794.44;;;4.68;51.70
49915;BME280;35806;47.958;13.158;2023-03-03T07:51:21;94802.31;;;2.82;55.17
49915;BME280;35806;47.958;13.158;2023-03-03T07:53:48;94804.98;;;3.26;55.06
49915;BME280;35806;47.958;13.158;2023-03-03T07:56:23;94807.13;;;3.87;53.77
49915;BME280;35806;47.958;13.158;2023-03-03T07:58:53;94810.83;;;4.45;52.63
49915;BME280;35806;47.958;13.158;2023-03-03T08:01:39;94813.17;;;4.22;52.92
49915;BME280;35806;47.958;13.158;2023-03-03T08:04:16;94816.62;;;4.32;52.77
49915;BME280;35806;47.958;13.158;2023-03-03T08:06:47;94814.00;;;4.07;53.21
49915;BME280;35806;47.958;13.158;2023-03-03T08:09:48;94817.21;;;4.44;52.89
49915;BME280;35806;47.958;13.158;2023-03-03T08:12:28;94813.59;;;4.79;52.28
49915;BME280;35806;47.958;13.158;2023-03-03T08:15:18;94815.50;;;4.77;52.39
49915;BME280;35806;47.958;13.158;2023-03-03T08:17:47;94813.74;;;4.12;52.25
49915;BME280;35806;47.958;13.158;2023-03-03T08:20:49;94817.92;;;4.19;52.87
49915;BME280;35806;47.958;13.158;2023-03-03T08:23:18;94814.87;;;4.67;51.68
49915;BME280;35806;47.958;13.158;2023-03-03T08:26:08;94816.76;;;4.29;52.56
49915;BME280;35806;47.958;13.158;2023-03-03T08:28:35;94814.87;;;4.33;52.72
49915;BME280;35806;47.958;13.158;2023-03-03T08:31:03;94807.01;;;4.55;52.29
49915;BME280;35806;47.958;13.158;2023-03-03T08:33:31;94807.91;;;4.25;52.85
49915;BME280;35806;47.958;13.158;2023-03-03T08:35:58;94808.97;;;4.52;53.08
49915;BME280;35806;47.958;13.158;2023-03-03T08:38:26;94806.71;;;4.86;52.35
49915;BME280;35806;47.958;13.158;2023-03-03T08:40:53;94805.67;;;4.29;53.30
49915;BME280;35806;47.958;13.158;2023-03-03T08:43:20;94807.10;;;3.99;53.43
49915;BME280;35806;47.958;13.158;2023-03-03T08:45:49;94806.78;;;3.83;53.12
49915;BME280;35806;47.958;13.158;2023-03-03T08:48:17;94810.92;;;4.45;52.81
49915;BME280;35806;47.958;13.158;2023-03-03T08:50:46;94806.67;;;3.69;54.38
49915;BME280;35806;47.958;13.158;2023-03-03T08:53:14;94807.97;;;3.15;56.01
49915;BME280;35806;47.958;13.158;2023-03-03T08:55:43;94801.13;;;3.77;55.46
49915;BME280;35806;47.958;13.158;2023-03-03T08:58:10;94798.35;;;4.57;53.57
49915;BME280;35806;47.958;13.158;2023-03-03T09:00:38;94800.92;;;4.61;53.68
49915;BME280;35806;47.958;13.158;2023-03-03T09:03:07;94804.10;;;4.50;53.82
49915;BME280;35806;47.958;13.158;2023-03-03T09:05:36;94805.40;;;4.43;53.42
49915;BME280;35806;47.958;13.158;2023-03-03T09:08:05;94809.44;;;4.76;52.08
49915;BME280;35806;47.958;13.158;2023-03-03T09:10:33;94814.58;;;4.55;52.25
49915;BME280;35806;47.958;13.158;2023-03-03T09:13:06;94813.29;;;4.77;52.92
49915;BME280;35806;47.958;13.158;2023-03-03T09:15:39;94816.05;;;4.86;52.80
49915;BME280;35806;47.958;13.158;2023-03-03T09:18:14;94820.67;;;5.19;51.97
49915;BME280;35806;47.958;13.158;2023-03-03T09:20:44;94825.54;;;5.16;51.74
49915;BME280;35806;47.958;13.158;2023-03-03T09:23:29;94830.35;;;4.98;51.69
49915;BME280;35806;47.958;13.158;2023-03-03T09:26:04;94831.44;;;6.04;49.76
49915;BME280;35806;47.958;13.158;2023-03-03T09:28:39;94833.82;;;5.99;49.68
49915;BME280;35806;47.958;13.158;2023-03-03T09:31:23;94835.26;;;5.29;51.03
49915;BME280;35806;47.958;13.158;2023-03-03T09:33:51;94837.73;;;5.44;51.27
49915;BME280;35806;47.958;13.158;2023-03-03T09:36:25;94840.12;;;5.61;50.58
49915;BME280;35806;47.958;13.158;2023-03-03T09:38:54;94843.69;;;5.72;50.09
49915;BME280;35806;47.958;13.158;2023-03-03T09:42:00;94844.86;;;5.55;50.05
49915;BME280;35806;47.958;13.158;2023-03-03T09:45:12;94850.47;;;5.72;49.80
49915;BME280;35806;47.958;13.158;2023-03-03T09:47:50;94852.61;;;5.10;49.49
49915;BME280;35806;47.958;13.158;2023-03-03T09:50:27;94853.28;;;5.17;49.77
49915;BME280;35806;47.958;13.158;2023-03-03T09:53:08;94854.74;;;5.79;48.97
49915;BME280;35806;47.958;13.158;2023-03-03T09:55:46;94856.43;;;5.55;49.33
49915;BME280;35806;47.958;13.158;2023-03-03T09:58:28;94855.96;;;5.67;49.24
49915;BME280;35806;47.958;13.158;2023-03-03T10:01:06;94854.60;;;5.76;49.28
49915;BME280;35806;47.958;13.158;2023-03-03T10:04:08;94856.67;;;5.51;49.34
49915;BME280;35806;47.958;13.158;2023-03-03T10:06:45;94857.58;;;5.38;49.72
49915;BME280;35806;47.958;13.158;2023-03-03T10:09:34;94855.58;;;5.48;50.30
49915;BME280;35806;47.958;13.158;2023-03-03T10:12:12;94858.22;;;5.67;49.87
49915;BME280;35806;47.958;13.158;2023-03-03T10:14:56;94857.34;;;6.37;49.60
49915;BME280;35806;47.958;13.158;2023-03-03T10:17:36;94859.19;;;5.72;49.71
49915;BME280;35806;47.958;13.158;2023-03-03T10:20:21;94860.24;;;5.04;50.84
49915;BME280;35806;47.958;13.158;2023-03-03T10:22:53;94862.39;;;5.52;50.68
49915;BME280;35806;47.958;13.158;2023-03-03T10:25:40;94862.40;;;5.20;51.17
49915;BME280;35806;47.958;13.158;2023-03-03T10:28:35;94865.49;;;4.58;53.26
49915;BME280;35806;47.958;13.158;2023-03-03T10:31:13;94865.16;;;4.79;52.66
49915;BME280;35806;47.958;13.158;2023-03-03T10:33:47;94866.91;;;5.56;52.57
49915;BME280;35806;47.958;13.158;2023-03-03T10:36:33;94871.82;;;5.30;52.58
49915;BME280;35806;47.958;13.158;2023-03-03T10:39:20;94874.35;;;5.21;51.99
49915;BME280;35806;47.958;13.158;2023-03-03T10:42:06;94876.85;;;5.58;51.26
49915;BME280;35806;47.958;13.158;2023-03-03T10:44:47;94884.31;;;5.42;50.24
49915;BME280;35806;47.958;13.158;2023-03-03T10:47:50;94888.09;;;5.54;50.07
49915;BME280;35806;47.958;13.158;2023-03-03T10:50:30;94887.99;;;5.45;50.72
49915;BME280;35806;47.958;13.158;2023-03-03T10:53:18;94886.23;;;5.53;50.51
49915;BME280;35806;47.958;13.158;2023-03-03T10:55:53;94886.26;;;5.00;51.58
49915;BME280;35806;47.958;13.158;2023-03-03T10:58:43;94883.02;;;5.67;51.11
49915;BME280;35806;47.958;13.158;2023-03-03T11:01:17;94882.05;;;5.39;50.71
49915;BME280;35806;47.958;13.158;2023-03-03T11:04:02;94879.27;;;5.65;50.27
49915;BME280;35806;47.958;13.158;2023-03-03T11:06:37;94879.11;;;5.60;50.75
49915;BME280;35806;47.958;13.158;2023-03-03T11:09:15;94883.32;;;6.32;48.73
49915;BME280;35806;47.958;13.158;2023-03-03T11:11:52;94883.76;;;6.15;49.94
49915;BME280;35806;47.958;13.158;2023-03-03T11:14:23;94881.65;;;6.32;49.70
49915;BME280;35806;47.958;13.158;2023-03-03T11:17:01;94880.12;;;6.17;49.32
49915;BME280;35806;47.958;13.158;2023-03-03T11:19:43;94875.51;;;6.18;49.33
49915;BME280;35806;47.958;13.158;2023-03-03T11:22:33;94871.24;;;6.20;49.11
49915;BME280;35806;47.958;13.158;2023-03-03T11:25:15;94870.11;;;6.82;48.55
49915;BME280;35806;47.958;13.158;2023-03-03T11:28:02;94865.94;;;6.66;49.01
49915;BME280;35806;47.958;13.158;2023-03-03T11:30:43;94862.74;;;6.60;48.24
49915;BME280;35806;47.958;13.158;2023-03-03T11:33:17;94853.41;;;7.28;47.94
49915;BME280;35806;47.958;13.158;2023-03-03T11:35:52;94851.25;;;6.67;48.23
49915;BME280;35806;47.958;13.158;2023-03-03T11:38:37;94847.03;;;5.79;48.68
49915;BME280;35806;47.958;13.158;2023-03-03T11:41:18;94851.63;;;6.82;49.09
49915;BME280;35806;47.958;13.158;2023-03-03T11:43:58;94854.03;;;7.07;48.53
49915;BME280;35806;47.958;13.158;2023-03-03T11:46:31;94851.73;;;6.94;47.32
49915;BME280;35806;47.958;13.158;2023-03-03T11:49:04;94852.90;;;6.15;47.21
49915;BME280;35806;47.958;13.158;2023-03-03T11:51:44;94846.73;;;7.43;45.82
49915;BME280;35806;47.958;13.158;2023-03-03T11:54:19;94842.04;;;7.65;46.20
49915;BME280;35806;47.958;13.158;2023-03-03T11:56:52;94836.11;;;7.56;46.44
49915;BME280;35806;47.958;13.158;2023-03-03T11:59:41;94834.64;;;7.24;46.64
49915;BME280;35806;47.958;13.158;2023-03-03T12:02:39;94830.48;;;7.42;47.05
49915;BME280;35806;47.958;13.158;2023-03-03T12:05:16;94828.32;;;7.44;47.97
49915;BME280;35806;47.958;13.158;2023-03-03T12:07:58;94830.24;;;7.59;46.76
49915;BME280;35806;47.958;13.158;2023-03-03T12:10:35;94832.20;;;6.89;47.85
49915;BME280;35806;47.958;13.158;2023-03-03T12:13:14;94827.37;;;7.59;46.94
49915;BME280;35806;47.958;13.158;2023-03-03T12:15:48;94823.80;;;7.02;47.36
49915;BME280;35806;47.958;13.158;2023-03-03T12:18:30;94820.45;;;7.60;46.75
49915;BME280;35806;47.958;13.158;2023-03-03T12:21:14;94816.62;;;7.15;47.29
49915;BME280;35806;47.958;13.158;2023-03-03T12:25:29;94816.74;;;6.84;48.62
49915;BME280;35806;47.958;13.158;2023-03-03T12:28:27;94825.68;;;7.81;48.03
49915;BME280;35806;47.958;13.158;2023-03-03T12:31:08;94833.67;;;7.66;47.02
49915;BME280;35806;47.958;13.158;2023-03-03T12:33:51;94834.71;;;8.02;45.92
49915;BME280;35806;47.958;13.158;2023-03-03T12:36:33;94838.88;;;8.47;46.44
49915;BME280;35806;47.958;13.158;2023-03-03T12:39:07;94840.30;;;8.50;45.79
49915;BME280;35806;47.958;13.158;2023-03-03T12:41:43;94836.80;;;8.42;45.87
49915;BME280;35806;47.958;13.158;2023-03-03T12:44:18;94832.45;;;8.53;45.31
49915;BME280;35806;47.958;13.158;2023-03-03T12:46:55;94831.25;;;8.84;45.15
49915;BME280;35806;47.958;13.158;2023-03-03T12:49:32;94829.94;;;8.82;45.60
49915;BME280;35806;47.958;13.158;2023-03-03T12:52:12;94823.42;;;8.94;44.84
49915;BME280;35806;47.958;13.158;2023-03-03T12:54:56;94817.66;;;7.75;46.47
49915;BME280;35806;47.958;13.158;2023-03-03T12:57:34;94819.05;;;8.40;45.37
49915;BME280;35806;47.958;13.158;2023-03-03T13:00:27;94815.51;;;8.65;46.11
49915;BME280;35806;47.958;13.158;2023-03-03T13:03:02;94814.42;;;8.63;46.30
49915;BME280;35806;47.958;13.158;2023-03-03T13:05:43;94811.10;;;8.08;46.76
49915;BME280;35806;47.958;13.158;2023-03-03T13:08:29;94816.17;;;8.89;46.05
49915;BME280;35806;47.958;13.158;2023-03-03T13:11:12;94816.33;;;8.73;45.12
49915;BME280;35806;47.958;13.158;2023-03-03T13:13:51;94819.41;;;8.64;45.18
49915;BME280;35806;47.958;13.158;2023-03-03T13:16:23;94813.85;;;9.09;44.98
49915;BME280;35806;47.958;13.158;2023-03-03T13:18:58;94811.31;;;8.66;45.26
49915;BME280;35806;47.958;13.158;2023-03-03T13:21:30;94815.55;;;7.48;46.41
49915;BME280;35806;47.958;13.158;2023-03-03T13:24:06;94810.66;;;7.76;45.81
49915;BME280;35806;47.958;13.158;2023-03-03T13:26:43;94809.25;;;8.71;44.76
49915;BME280;35806;47.958;13.158;2023-03-03T13:29:19;94810.68;;;8.90;44.92
49915;BME280;35806;47.958;13.158;2023-03-03T13:31:53;94813.14;;;7.61;48.78
49915;BME280;35806;47.958;13.158;2023-03-03T13:34:32;94808.02;;;8.18;46.97
49915;BME280;35806;47.958;13.158;2023-03-03T13:37:06;94806.98;;;7.70;45.76
49915;BME280;35806;47.958;13.158;2023-03-03T13:39:40;94808.05;;;7.45;46.87
49915;BME280;35806;47.958;13.158;2023-03-03T13:42:16;94806.46;;;8.54;45.64
49915;BME280;35806;47.958;13.158;2023-03-03T13:44:47;94804.62;;;8.62;45.28
49915;BME280;35806;47.958;13.158;2023-03-03T13:47:22;94802.28;;;8.36;46.08